Time;durP1;ratioP1;P1;durP2;ratioP2;P2;SDS_P1;SDS_P2;PMS_P1;PMS_P2;Temp;Humidity;BMP_temperature;BMP_pressure;BME280_temperature;BME280_humidity;BME280_pressure;Samples;Min_cycle;Max_cycle;Signal;HPM_P1;HPM_P2
2023/12/08 00:02:29;;;;;;;7.32;6.43;;;7.00;99.90;;;;;;5246684;28;20021;-75
2023/12/08 00:05:00;;;;;;;8.70;7.47;;;7.10;99.90;;;;;;5246734;28;20464;-73
2023/12/08 00:07:31;;;;;;;5.65;5.15;;;7.00;99.90;;;;;;5246572;28;20411;-73
2023/12/08 00:10:03;;;;;;;6.38;5.00;;;7.00;99.90;;;;;;5249567;28;20443;-73
2023/12/08 00:12:34;;;;;;;5.43;4.43;;;7.00;99.90;;;;;;5250407;28;20468;-73
2023/12/08 00:15:06;;;;;;;5.82;5.30;;;6.90;99.90;;;;;;5250322;28;20024;-73
2023/12/08 00:17:36;;;;;;;4.15;3.85;;;6.90;99.90;;;;;;5249797;28;20036;-73
2023/12/08 00:20:08;;;;;;;6.40;5.10;;;6.90;99.90;;;;;;5249481;28;20034;-72
2023/12/08 00:22:39;;;;;;;4.43;3.45;;;7.00;99.90;;;;;;5248933;28;20035;-73
2023/12/08 00:25:11;;;;;;;4.65;4.13;;;7.00;99.90;;;;;;5249063;28;20027;-73
2023/12/08 00:27:42;;;;;;;4.97;3.15;;;6.90;99.90;;;;;;5248833;28;20017;-73
2023/12/08 00:30:13;;;;;;;3.88;3.58;;;6.90;99.90;;;;;;5247422;28;20033;-73
2023/12/08 00:32:44;;;;;;;4.32;3.92;;;6.90;99.90;;;;;;5247527;28;20031;-76
2023/12/08 00:35:15;;;;;;;5.05;4.03;;;6.90;99.90;;;;;;5249493;28;20056;-72
2023/12/08 00:37:46;;;;;;;4.43;4.03;;;6.90;99.90;;;;;;5249758;28;20029;-73
2023/12/08 00:40:17;;;;;;;3.70;3.40;;;6.90;99.90;;;;;;5248486;28;20472;-73
2023/12/08 00:42:48;;;;;;;4.15;3.85;;;6.90;99.90;;;;;;5249858;28;20025;-79
2023/12/08 00:45:20;;;;;;;4.82;3.90;;;7.00;99.90;;;;;;5249987;28;20039;-72
2023/12/08 00:47:50;;;;;;;11.13;8.07;;;7.00;99.90;;;;;;5249899;28;20025;-73
2023/12/08 00:50:21;;;;;;;5.20;4.50;;;6.90;99.90;;;;;;5250115;28;20047;-73
2023/12/08 00:52:52;;;;;;;5.97;4.80;;;6.90;99.90;;;;;;5249632;28;20020;-79
2023/12/08 00:55:23;;;;;;;4.85;4.10;;;6.80;99.90;;;;;;5249757;28;20039;-78
2023/12/08 00:57:54;;;;;;;4.43;4.03;;;6.90;99.90;;;;;;5248447;28;20021;-73
2023/12/08 01:00:25;;;;;;;4.05;3.75;;;6.90;99.90;;;;;;5248992;28;20123;-72
2023/12/08 01:02:56;;;;;;;4.32;3.92;;;6.90;99.90;;;;;;5249340;28;20108;-73
2023/12/08 01:05:27;;;;;;;3.75;3.22;;;6.80;99.90;;;;;;5249619;28;20032;-72
2023/12/08 01:07:57;;;;;;;6.88;4.88;;;6.70;99.90;;;;;;5249383;28;20017;-72
2023/12/08 01:10:29;;;;;;;4.82;4.28;;;6.80;99.90;;;;;;5249235;28;20049;-73
2023/12/08 01:12:59;;;;;;;4.38;3.72;;;6.90;99.90;;;;;;5248803;28;20024;-73
2023/12/08 01:15:30;;;;;;;5.40;4.25;;;6.80;99.90;;;;;;5249014;28;20024;-73
2023/12/08 01:18:01;;;;;;;5.68;4.30;;;6.90;99.90;;;;;;5248135;28;20427;-73
2023/12/08 01:20:33;;;;;;;5.20;4.75;;;6.80;99.90;;;;;;5247446;28;20028;-74
2023/12/08 01:23:04;;;;;;;5.32;4.78;;;6.80;99.90;;;;;;5247856;28;20024;-73
2023/12/08 01:25:34;;;;;;;8.55;5.60;;;6.80;99.90;;;;;;5248111;28;20476;-73
2023/12/08 01:28:05;;;;;;;6.85;6.15;;;6.90;99.90;;;;;;5247862;28;20403;-74
2023/12/08 01:30:36;;;;;;;7.05;6.25;;;6.90;99.90;;;;;;5246906;28;20425;-72
2023/12/08 01:33:08;;;;;;;7.60;6.28;;;6.90;99.90;;;;;;5248891;28;20357;-72
2023/12/08 01:35:38;;;;;;;6.38;5.88;;;6.80;99.90;;;;;;5248862;28;20104;-79
2023/12/08 01:38:09;;;;;;;7.75;6.45;;;6.90;99.90;;;;;;5248587;28;20127;-72
2023/12/08 01:40:41;;;;;;;9.30;6.30;;;6.80;99.90;;;;;;5248430;28;20090;-73
2023/12/08 01:43:12;;;;;;;9.23;6.47;;;6.90;99.90;;;;;;5248757;28;20020;-72
2023/12/08 01:45:43;;;;;;;7.22;6.43;;;6.90;99.90;;;;;;5248777;28;20606;-72
2023/12/08 01:48:15;;;;;;;9.57;6.30;;;6.80;99.90;;;;;;5247553;28;20035;-73
2023/12/08 01:50:46;;;;;;;8.60;5.68;;;6.80;99.90;;;;;;5248605;28;20036;-72
2023/12/08 01:53:16;;;;;;;9.15;6.13;;;6.80;99.90;;;;;;5248555;28;20489;-73
2023/12/08 01:55:47;;;;;;;7.22;6.47;;;6.80;99.90;;;;;;5248329;28;20108;-73
2023/12/08 01:58:18;;;;;;;8.32;6.63;;;6.90;99.90;;;;;;5248500;28;20448;-72
2023/12/08 02:00:49;;;;;;;7.40;5.97;;;6.80;99.90;;;;;;5248355;28;20094;-77
2023/12/08 02:03:23;;;;;;;7.68;6.55;;;6.80;99.90;;;;;;5247892;28;20033;-73
2023/12/08 02:05:54;;;;;;;9.80;7.10;;;6.80;99.90;;;;;;5248036;28;20039;-72
2023/12/08 02:08:26;;;;;;;7.38;6.20;;;6.80;99.90;;;;;;5247192;28;20049;-74
2023/12/08 02:10:57;;;;;;;8.45;7.03;;;6.80;99.90;;;;;;5247939;28;20483;-73
2023/12/08 02:13:28;;;;;;;8.20;6.65;;;6.90;99.90;;;;;;5246827;28;20044;-72
2023/12/08 02:16:12;;;;;;;9.55;6.57;;;6.80;99.90;;;;;;5246784;28;20549;-73
2023/12/08 02:18:44;;;;;;;12.27;8.00;;;6.80;99.90;;;;;;5245306;28;20017;-73
2023/12/08 02:21:15;;;;;;;9.57;6.70;;;6.90;99.90;;;;;;5245472;28;20036;-72
2023/12/08 02:23:49;;;;;;;8.20;5.93;;;6.90;99.90;;;;;;5246794;28;20557;-73
2023/12/08 02:26:21;;;;;;;7.78;5.60;;;6.80;99.90;;;;;;5246733;28;20032;-72
2023/12/08 02:28:52;;;;;;;9.27;6.90;;;6.80;99.90;;;;;;5247838;28;20471;-72
2023/12/08 02:31:35;;;;;;;8.43;6.57;;;6.80;99.90;;;;;;5247033;28;20036;-72
2023/12/08 02:34:07;;;;;;;6.75;6.15;;;6.70;99.90;;;;;;5247948;28;20029;-78
2023/12/08 02:36:39;;;;;;;9.77;6.22;;;6.70;99.90;;;;;;5247757;28;20020;-73
2023/12/08 02:39:11;;;;;;;7.20;6.47;;;6.70;99.90;;;;;;5247460;28;20115;-73
2023/12/08 02:41:43;;;;;;;8.48;6.80;;;6.80;99.90;;;;;;5247624;28;20027;-72
2023/12/08 02:44:13;;;;;;;12.98;6.93;;;6.70;99.90;;;;;;5247683;28;20021;-79
2023/12/08 02:46:45;;;;;;;11.00;7.78;;;6.60;99.90;;;;;;5247600;28;20016;-72
2023/12/08 02:49:15;;;;;;;6.82;6.13;;;6.70;99.90;;;;;;5247570;28;20027;-73
2023/12/08 02:51:46;;;;;;;10.82;6.95;;;6.80;99.90;;;;;;5247290;28;20032;-76
2023/12/08 02:54:17;;;;;;;7.70;6.93;;;6.70;99.90;;;;;;5247034;28;20025;-72
2023/12/08 02:56:48;;;;;;;9.45;6.53;;;6.70;99.90;;;;;;5247388;28;20062;-74
2023/12/08 02:59:19;;;;;;;7.05;6.35;;;6.60;99.90;;;;;;5247348;28;20415;-73
2023/12/08 03:01:50;;;;;;;10.85;7.28;;;6.70;99.90;;;;;;5247359;28;20025;-73
2023/12/08 03:04:21;;;;;;;12.75;8.63;;;6.60;99.90;;;;;;5246851;28;20050;-78
2023/12/08 03:06:52;;;;;;;13.38;8.95;;;6.50;99.90;;;;;;5246716;28;20016;-73
2023/12/08 03:09:23;;;;;;;15.88;10.68;;;6.70;99.90;;;;;;5245713;28;20362;-72
2023/12/08 03:11:54;;;;;;;12.32;6.47;;;6.60;99.90;;;;;;5245829;28;20106;-72
2023/12/08 03:14:25;;;;;;;11.63;7.80;;;6.50;99.90;;;;;;5244806;28;20028;-75
2023/12/08 03:16:55;;;;;;;10.18;8.10;;;6.50;99.90;;;;;;5246037;28;20032;-73
2023/12/08 03:19:26;;;;;;;10.73;7.22;;;6.60;99.90;;;;;;5246059;28;20031;-73
2023/12/08 03:21:57;;;;;;;10.02;7.35;;;6.60;99.90;;;;;;5245935;28;20027;-73
2023/12/08 03:24:28;;;;;;;11.85;7.82;;;6.50;99.90;;;;;;5247252;28;20032;-72
2023/12/08 03:26:59;;;;;;;7.78;6.95;;;6.60;99.90;;;;;;5247354;28;20020;-74
2023/12/08 03:29:30;;;;;;;9.52;7.50;;;6.50;99.90;;;;;;5247119;28;20368;-72
2023/12/08 03:32:01;;;;;;;11.10;7.13;;;6.60;99.90;;;;;;5247221;28;20082;-75
2023/12/08 03:34:32;;;;;;;11.35;6.60;;;6.50;99.90;;;;;;5247089;28;20021;-78
2023/12/08 03:37:03;;;;;;;8.52;7.15;;;6.60;99.90;;;;;;5246809;28;20021;-76
2023/12/08 03:39:33;;;;;;;14.02;7.45;;;6.60;99.90;;;;;;5245625;28;20032;-72
2023/12/08 03:42:04;;;;;;;12.23;6.38;;;6.50;99.90;;;;;;5247334;28;20032;-72
2023/12/08 03:44:35;;;;;;;9.25;7.00;;;6.50;99.90;;;;;;5250754;28;20028;-73
2023/12/08 03:47:06;;;;;;;10.32;7.13;;;6.60;99.90;;;;;;5250976;28;20035;-72
2023/12/08 03:49:37;;;;;;;10.20;7.32;;;6.60;99.90;;;;;;5250921;28;20024;-72
2023/12/08 03:52:08;;;;;;;9.57;7.03;;;6.60;99.90;;;;;;5251084;28;20029;-73
2023/12/08 03:54:39;;;;;;;13.27;7.32;;;6.60;99.90;;;;;;5250860;28;20464;-73
2023/12/08 03:57:09;;;;;;;11.13;7.22;;;6.50;99.90;;;;;;5250530;28;20388;-73
2023/12/08 03:59:43;;;;;;;9.20;6.45;;;6.50;99.90;;;;;;5250364;28;20040;-72
2023/12/08 04:02:14;;;;;;;10.80;6.95;;;6.50;99.90;;;;;;5250171;28;20536;-73
2023/12/08 04:04:45;;;;;;;10.23;7.13;;;6.50;99.90;;;;;;5248617;28;20111;-73
2023/12/08 04:07:16;;;;;;;9.30;6.75;;;6.50;99.90;;;;;;5249171;28;20109;-73
2023/12/08 04:09:47;;;;;;;8.75;7.68;;;6.50;99.90;;;;;;5249054;28;20499;-73
2023/12/08 04:12:20;;;;;;;9.75;6.63;;;6.50;99.90;;;;;;5250363;28;20075;-78
2023/12/08 04:14:51;;;;;;;8.05;6.78;;;6.50;99.90;;;;;;5250440;28;20153;-73
2023/12/08 04:17:21;;;;;;;10.13;6.95;;;6.50;99.90;;;;;;5250473;28;20032;-72
2023/12/08 04:19:52;;;;;;;11.50;7.80;;;6.50;99.90;;;;;;5249138;28;20024;-73
2023/12/08 04:22:23;;;;;;;13.02;7.88;;;6.50;99.90;;;;;;5250249;28;20056;-79
2023/12/08 04:24:54;;;;;;;11.60;7.40;;;6.40;99.90;;;;;;5248966;28;20033;-74
2023/12/08 04:27:25;;;;;;;9.82;6.57;;;6.50;99.90;;;;;;5250267;28;20037;-73
2023/12/08 04:29:56;;;;;;;10.73;7.55;;;6.50;99.90;;;;;;5249042;28;20460;-73
2023/12/08 04:32:27;;;;;;;9.90;8.40;;;6.40;99.90;;;;;;5250239;28;20029;-73
2023/12/08 04:34:57;;;;;;;10.25;6.68;;;6.30;99.90;;;;;;5250124;28;20023;-77
2023/12/08 04:37:28;;;;;;;10.00;6.80;;;6.40;99.90;;;;;;5248679;28;20016;-80
2023/12/08 04:39:59;;;;;;;10.00;7.05;;;6.40;99.90;;;;;;5249806;28;20072;-72
2023/12/08 04:42:30;;;;;;;11.70;7.18;;;6.30;99.90;;;;;;5250102;28;20028;-75
2023/12/08 04:45:01;;;;;;;10.23;8.07;;;6.40;99.90;;;;;;5249929;28;20024;-73
2023/12/08 04:47:32;;;;;;;8.23;7.43;;;6.30;99.90;;;;;;5250079;28;20464;-78
2023/12/08 04:50:03;;;;;;;9.95;7.03;;;6.30;99.90;;;;;;5249837;28;20024;-74
2023/12/08 04:52:34;;;;;;;8.00;6.63;;;6.30;99.90;;;;;;5249738;28;20086;-73
2023/12/08 04:55:05;;;;;;;12.57;7.43;;;6.20;99.90;;;;;;5248617;28;20032;-73
2023/12/08 04:57:36;;;;;;;11.40;7.30;;;6.20;99.90;;;;;;5249103;28;20101;-73
2023/12/08 05:00:07;;;;;;;12.02;7.40;;;6.30;99.90;;;;;;5249125;28;20028;-73
2023/12/08 05:02:38;;;;;;;10.90;7.80;;;6.20;99.90;;;;;;5247225;28;20020;-72
2023/12/08 05:05:09;;;;;;;10.23;7.55;;;6.20;99.90;;;;;;5247204;28;20750;-72
2023/12/08 05:07:40;;;;;;;10.35;8.20;;;6.30;99.90;;;;;;5248048;28;20099;-73
2023/12/08 05:10:11;;;;;;;10.30;7.45;;;6.30;99.90;;;;;;5247382;28;20388;-74
2023/12/08 05:12:43;;;;;;;9.90;7.82;;;6.30;99.90;;;;;;5248223;28;20025;-73
2023/12/08 05:15:14;;;;;;;10.20;8.32;;;6.40;99.90;;;;;;5248708;28;20492;-73
2023/12/08 05:17:45;;;;;;;11.90;9.45;;;6.40;99.90;;;;;;5249147;28;20028;-73
2023/12/08 05:20:16;;;;;;;9.55;7.60;;;6.40;99.90;;;;;;5249147;28;20024;-73
2023/12/08 05:22:47;;;;;;;10.38;7.25;;;6.40;99.90;;;;;;5249299;28;20112;-79
2023/12/08 05:25:18;;;;;;;12.05;7.97;;;6.30;99.90;;;;;;5247900;28;20119;-75
2023/12/08 05:27:49;;;;;;;11.68;7.65;;;6.30;99.90;;;;;;5248961;28;20346;-74
2023/12/08 05:30:20;;;;;;;9.55;8.02;;;6.40;99.90;;;;;;5249019;28;20040;-74
2023/12/08 05:32:51;;;;;;;10.55;8.50;;;6.30;99.90;;;;;;5247614;28;20024;-76
2023/12/08 05:35:22;;;;;;;11.25;7.90;;;6.30;99.90;;;;;;5248778;28;20028;-74
2023/12/08 05:37:53;;;;;;;11.60;8.95;;;6.30;99.90;;;;;;5248628;28;20024;-79
2023/12/08 05:40:24;;;;;;;13.20;8.48;;;6.20;99.90;;;;;;5248912;28;20377;-72
2023/12/08 05:42:54;;;;;;;12.23;8.80;;;6.20;99.90;;;;;;5248806;28;20484;-72
2023/12/08 05:45:25;;;;;;;10.27;8.50;;;6.30;99.90;;;;;;5248797;28;20095;-72
2023/12/08 05:47:56;;;;;;;9.93;7.90;;;6.20;99.90;;;;;;5248856;28;20496;-72
2023/12/08 05:50:27;;;;;;;9.65;8.07;;;6.20;99.90;;;;;;5248642;28;20044;-77
2023/12/08 05:52:58;;;;;;;8.85;7.60;;;6.20;99.90;;;;;;5247796;28;20039;-74
2023/12/08 05:55:29;;;;;;;8.90;7.05;;;6.20;99.90;;;;;;5248410;28;20017;-73
2023/12/08 05:58:00;;;;;;;10.38;7.32;;;6.30;99.90;;;;;;5247413;28;20052;-72
2023/12/08 06:00:30;;;;;;;9.10;6.53;;;6.20;99.90;;;;;;5247055;28;20024;-74
2023/12/08 06:03:01;;;;;;;9.60;6.55;;;6.20;99.90;;;;;;5247028;28;20073;-73
2023/12/08 06:05:33;;;;;;;13.18;7.60;;;6.20;99.90;;;;;;5246804;28;20037;-72
2023/12/08 06:08:04;;;;;;;9.02;7.72;;;6.20;99.90;;;;;;5246516;28;20017;-73
2023/12/08 06:10:35;;;;;;;9.07;7.15;;;6.20;99.90;;;;;;5247123;28;20040;-76
2023/12/08 06:13:05;;;;;;;7.20;6.50;;;6.20;99.90;;;;;;5246852;28;20539;-73
2023/12/08 06:15:36;;;;;;;11.15;7.47;;;6.20;99.90;;;;;;5247887;28;20376;-74
2023/12/08 06:18:07;;;;;;;7.70;7.03;;;6.30;99.90;;;;;;5246647;28;20024;-73
2023/12/08 06:20:38;;;;;;;10.95;8.32;;;6.20;99.90;;;;;;5248092;28;20070;-80
2023/12/08 06:23:09;;;;;;;11.25;6.95;;;6.10;99.90;;;;;;5246948;28;20056;-73
2023/12/08 06:25:40;;;;;;;11.10;7.03;;;6.20;99.90;;;;;;5247993;28;20456;-73
2023/12/08 06:28:11;;;;;;;11.60;7.78;;;6.30;99.90;;;;;;5247932;28;20544;-72
2023/12/08 06:30:42;;;;;;;8.98;7.78;;;6.20;99.90;;;;;;5246432;28;20039;-76
2023/12/08 06:33:12;;;;;;;9.00;8.10;;;6.20;99.90;;;;;;5246516;28;20095;-73
2023/12/08 06:35:43;;;;;;;10.90;9.13;;;6.20;99.90;;;;;;5247261;28;20031;-73
2023/12/08 06:38:14;;;;;;;11.50;7.85;;;6.20;99.90;;;;;;5247211;28;20028;-78
2023/12/08 06:40:45;;;;;;;12.20;8.40;;;6.20;99.90;;;;;;5247458;28;20031;-73
2023/12/08 06:43:16;;;;;;;11.77;8.27;;;6.30;99.90;;;;;;5247195;28;20395;-73
2023/12/08 06:45:47;;;;;;;10.40;7.43;;;6.30;99.90;;;;;;5247629;28;20024;-73
2023/12/08 06:48:18;;;;;;;10.93;8.43;;;6.20;99.90;;;;;;5247486;28;20476;-73
2023/12/08 06:50:49;;;;;;;13.25;9.65;;;6.10;99.90;;;;;;5244981;28;20052;-73
2023/12/08 06:53:19;;;;;;;12.35;9.55;;;6.10;99.90;;;;;;5246128;28;20033;-73
2023/12/08 06:55:50;;;;;;;16.88;9.05;;;6.10;99.90;;;;;;5245756;28;20073;-72
2023/12/08 06:58:21;;;;;;;10.68;8.48;;;6.10;99.90;;;;;;5246065;28;20063;-73
2023/12/08 07:00:53;;;;;;;9.45;7.57;;;6.10;99.90;;;;;;5246237;28;20025;-78
2023/12/08 07:03:24;;;;;;;13.60;9.95;;;6.20;99.90;;;;;;5246297;28;20380;-74
2023/12/08 07:08:35;;;;;;;11.05;9.75;;;6.10;99.90;;;;;;5466799;23;20056;-72
2023/12/08 07:11:08;;;;;;;13.18;10.55;;;6.10;99.90;;;;;;5226470;28;20049;-74
2023/12/08 07:13:39;;;;;;;10.43;8.40;;;6.00;99.90;;;;;;5226472;28;20381;-73
2023/12/08 07:16:10;;;;;;;9.88;8.38;;;6.00;99.90;;;;;;5226392;28;20033;-73
2023/12/08 07:18:41;;;;;;;8.73;7.90;;;6.00;99.90;;;;;;5226047;28;20127;-72
2023/12/08 07:21:12;;;;;;;9.60;7.88;;;6.10;99.90;;;;;;5226401;28;20029;-79
2023/12/08 07:23:43;;;;;;;10.70;7.97;;;6.00;99.90;;;;;;5226184;28;20032;-75
2023/12/08 07:26:14;;;;;;;8.68;7.85;;;6.00;99.90;;;;;;5226041;28;20040;-72
2023/12/08 07:28:45;;;;;;;10.98;8.77;;;6.00;99.90;;;;;;5226326;28;20056;-75
2023/12/08 07:31:16;;;;;;;10.75;7.97;;;6.00;99.90;;;;;;5226087;28;20032;-73
2023/12/08 07:33:47;;;;;;;13.05;8.43;;;6.00;99.90;;;;;;5226079;28;20033;-73
2023/12/08 07:36:18;;;;;;;10.40;8.90;;;6.00;99.90;;;;;;5226057;28;20090;-74
2023/12/08 07:38:48;;;;;;;11.45;9.60;;;6.00;99.90;;;;;;5226186;28;20079;-72
2023/12/08 07:41:19;;;;;;;9.27;8.43;;;6.00;99.90;;;;;;5226307;28;20119;-73
2023/12/08 07:43:54;;;;;;;10.15;8.77;;;5.90;99.90;;;;;;5226179;28;20029;-73
2023/12/08 07:46:25;;;;;;;10.73;8.52;;;6.00;99.90;;;;;;5225477;28;20020;-75
2023/12/08 07:48:57;;;;;;;11.40;8.48;;;5.90;99.90;;;;;;5225725;28;20380;-74
2023/12/08 07:51:28;;;;;;;10.27;7.68;;;6.00;99.90;;;;;;5224769;28;20115;-75
2023/12/08 07:54:00;;;;;;;9.65;8.18;;;6.10;99.90;;;;;;5224889;28;20063;-73
2023/12/08 07:56:33;;;;;;;8.90;7.80;;;6.10;99.90;;;;;;5224742;28;20102;-72
2023/12/08 07:59:04;;;;;;;8.75;7.85;;;6.00;99.90;;;;;;5224839;28;20033;-74
2023/12/08 08:01:36;;;;;;;11.05;8.95;;;6.10;99.90;;;;;;5224653;28;20069;-76
2023/12/08 08:04:07;;;;;;;11.60;8.60;;;6.00;99.90;;;;;;5225232;28;20021;-73
2023/12/08 08:06:37;;;;;;;14.10;9.25;;;5.90;99.90;;;;;;5225395;28;20025;-72
2023/12/08 08:09:08;;;;;;;10.73;9.63;;;6.00;99.90;;;;;;5226160;28;20053;-73
2023/12/08 08:11:39;;;;;;;10.60;8.30;;;6.00;99.90;;;;;;5225899;28;20041;-72
2023/12/08 08:14:10;;;;;;;12.18;8.93;;;6.00;99.90;;;;;;5208105;28;20040;-75
2023/12/08 08:16:42;;;;;;;12.15;9.13;;;6.00;99.90;;;;;;5226109;28;20078;-78
2023/12/08 08:19:13;;;;;;;11.88;9.55;;;5.90;99.90;;;;;;5226313;28;20017;-73
2023/12/08 08:21:44;;;;;;;12.95;8.40;;;6.00;99.90;;;;;;5226320;28;20400;-78
2023/12/08 08:24:14;;;;;;;9.82;8.25;;;6.00;99.90;;;;;;5225881;28;20116;-77
2023/12/08 08:26:47;;;;;;;8.77;7.30;;;6.20;99.90;;;;;;5225821;28;20092;-72
2023/12/08 08:29:17;;;;;;;9.77;8.68;;;6.00;99.90;;;;;;5208701;28;20024;-73
2023/12/08 08:31:48;;;;;;;9.15;7.63;;;6.00;99.90;;;;;;5211428;28;20507;-72
2023/12/08 08:34:19;;;;;;;9.95;8.75;;;6.00;99.90;;;;;;5229281;28;20032;-72
2023/12/08 08:36:50;;;;;;;9.65;8.25;;;6.10;99.90;;;;;;5229354;28;20048;-73
2023/12/08 08:39:21;;;;;;;11.38;9.15;;;6.00;99.90;;;;;;5229600;28;20472;-74
2023/12/08 08:41:53;;;;;;;11.95;9.68;;;6.10;99.90;;;;;;5228637;28;20033;-73
2023/12/08 08:44:24;;;;;;;10.38;9.32;;;6.20;99.90;;;;;;5229121;28;20048;-72
2023/12/08 08:46:55;;;;;;;11.68;8.63;;;6.20;99.90;;;;;;5227796;28;20025;-74
2023/12/08 08:49:26;;;;;;;14.05;8.65;;;6.20;99.90;;;;;;5210169;28;20534;-73
2023/12/08 08:51:57;;;;;;;11.18;8.43;;;6.20;99.90;;;;;;5227594;28;20044;-73
2023/12/08 08:54:28;;;;;;;10.95;7.80;;;6.20;99.90;;;;;;5227620;28;20037;-77
2023/12/08 08:56:59;;;;;;;8.82;6.75;;;6.20;99.90;;;;;;5227636;28;20033;-73
2023/12/08 08:59:30;;;;;;;9.55;7.50;;;6.10;99.90;;;;;;5227814;28;20576;-73
2023/12/08 09:02:01;;;;;;;10.02;7.25;;;6.10;99.90;;;;;;5228681;28;20213;-74
2023/12/08 09:04:31;;;;;;;12.45;8.05;;;6.30;99.90;;;;;;5228635;28;20021;-73
2023/12/08 09:07:02;;;;;;;10.73;7.80;;;6.20;99.90;;;;;;5228372;28;20057;-77
2023/12/08 09:09:33;;;;;;;12.52;7.57;;;6.20;99.90;;;;;;5228842;28;20035;-73
2023/12/08 09:12:05;;;;;;;8.43;6.90;;;6.20;99.90;;;;;;5228385;28;20052;-73
2023/12/08 09:14:38;;;;;;;9.65;7.35;;;6.10;99.90;;;;;;5228648;28;20512;-73
2023/12/08 09:17:09;;;;;;;11.13;7.00;;;6.10;99.90;;;;;;5228526;28;20068;-72
2023/12/08 09:19:40;;;;;;;14.25;8.40;;;6.10;99.90;;;;;;5228345;28;20057;-72
2023/12/08 09:22:10;;;;;;;12.10;8.05;;;6.00;99.90;;;;;;5228462;28;20021;-74
2023/12/08 09:24:41;;;;;;;9.50;7.90;;;6.10;99.90;;;;;;5228267;28;20024;-73
2023/12/08 09:27:12;;;;;;;7.70;6.82;;;6.10;99.90;;;;;;5228465;28;20412;-77
2023/12/08 09:29:43;;;;;;;7.88;7.15;;;6.10;99.90;;;;;;5228489;28;20036;-73
2023/12/08 09:32:14;;;;;;;10.00;7.35;;;6.20;99.90;;;;;;5228504;28;20500;-78
2023/12/08 09:34:45;;;;;;;10.23;7.85;;;6.20;99.90;;;;;;5228335;28;20541;-72
2023/12/08 09:37:16;;;;;;;12.90;8.88;;;6.10;99.90;;;;;;5228103;28;20519;-73
2023/12/08 09:39:46;;;;;;;12.88;8.48;;;6.20;99.90;;;;;;5227531;28;20021;-73
2023/12/08 09:42:51;;;;;;;8.07;7.15;;;6.30;99.90;;;;;;5227040;28;20075;-75
2023/12/08 09:45:23;;;;;;;9.27;7.00;;;6.10;99.90;;;;;;5222576;28;20033;-74
2023/12/08 09:47:55;;;;;;;10.77;7.45;;;6.10;99.90;;;;;;5226757;28;20025;-73
2023/12/08 09:50:27;;;;;;;9.70;7.63;;;6.20;99.90;;;;;;5226460;28;20775;-73
2023/12/08 09:52:58;;;;;;;8.45;7.57;;;6.20;99.90;;;;;;5226699;28;20151;-73
2023/12/08 09:55:29;;;;;;;9.77;7.72;;;6.10;99.90;;;;;;5226564;28;20088;-74
2023/12/08 09:58:02;;;;;;;9.20;8.00;;;6.10;99.90;;;;;;5226946;28;20025;-72
2023/12/08 10:00:33;;;;;;;12.43;8.48;;;6.10;99.90;;;;;;5227772;28;20032;-72
2023/12/08 10:03:04;;;;;;;11.85;6.75;;;6.10;99.90;;;;;;5227766;28;20025;-72
2023/12/08 10:05:35;;;;;;;9.13;8.00;;;6.10;99.90;;;;;;5227715;28;20032;-72
2023/12/08 10:08:08;;;;;;;11.68;7.88;;;6.10;99.90;;;;;;5227034;28;20048;-72
2023/12/08 10:10:40;;;;;;;11.20;8.20;;;6.10;99.90;;;;;;5227478;28;20043;-72
2023/12/08 10:13:12;;;;;;;9.63;7.03;;;6.00;99.90;;;;;;5227625;28;20025;-73
2023/12/08 10:15:43;;;;;;;9.55;7.95;;;6.00;99.90;;;;;;5227520;28;20017;-72
2023/12/08 10:18:25;;;;;;;7.88;7.07;;;6.00;99.90;;;;;;5209721;28;20110;-73
2023/12/08 10:21:16;;;;;;;9.30;7.80;;;5.90;99.90;;;;;;5227425;28;20050;-72
2023/12/08 10:23:57;;;;;;;9.35;7.30;;;6.00;99.90;;;;;;5227435;28;20021;-73
2023/12/08 10:26:30;;;;;;;10.52;8.50;;;6.00;99.90;;;;;;5227504;28;20060;-73
2023/12/08 10:29:01;;;;;;;12.95;9.85;;;6.00;99.90;;;;;;5209398;28;20426;-73
2023/12/08 10:31:32;;;;;;;11.88;10.50;;;6.00;99.90;;;;;;5209270;28;20044;-76
2023/12/08 10:34:05;;;;;;;8.88;7.70;;;6.00;99.90;;;;;;5226589;28;20017;-72
2023/12/08 10:36:37;;;;;;;13.73;9.20;;;5.80;99.90;;;;;;5226644;28;20041;-73
2023/12/08 10:39:08;;;;;;;10.93;9.52;;;6.00;99.90;;;;;;5225813;28;20025;-73
2023/12/08 10:41:39;;;;;;;14.85;11.00;;;6.00;99.90;;;;;;5225795;28;20024;-72
2023/12/08 10:44:12;;;;;;;12.63;9.90;;;5.90;99.90;;;;;;5225670;28;20628;-73
2023/12/08 10:46:44;;;;;;;11.82;9.32;;;5.90;99.90;;;;;;5225587;28;20108;-73
2023/12/08 10:49:22;;;;;;;14.98;10.85;;;5.90;99.90;;;;;;5225532;28;20033;-76
2023/12/08 10:51:53;;;;;;;10.73;9.27;;;6.00;99.90;;;;;;5224848;28;20029;-74
2023/12/08 10:54:25;;;;;;;12.88;9.82;;;6.00;99.90;;;;;;5226523;28;20028;-72
2023/12/08 10:56:56;;;;;;;11.38;9.10;;;5.90;99.90;;;;;;5226693;28;20354;-73
2023/12/08 10:59:31;;;;;;;13.73;9.15;;;5.90;99.90;;;;;;5226692;28;20025;-75
2023/12/08 11:02:03;;;;;;;11.25;9.68;;;6.00;99.90;;;;;;5226618;28;20082;-73
2023/12/08 11:04:38;;;;;;;13.00;8.88;;;5.90;99.90;;;;;;5226471;28;20025;-79
2023/12/08 11:07:17;;;;;;;11.00;9.55;;;5.90;99.90;;;;;;5226057;28;20053;-73
2023/12/08 11:09:51;;;;;;;10.95;9.18;;;5.80;99.90;;;;;;5226298;28;20036;-73
2023/12/08 11:12:26;;;;;;;11.57;10.07;;;5.80;99.90;;;;;;5226912;28;20377;-73
2023/12/08 11:15:09;;;;;;;15.82;10.05;;;5.80;99.90;;;;;;5226429;28;20025;-73
2023/12/08 11:17:58;;;;;;;11.38;8.32;;;5.80;99.90;;;;;;5226508;28;20029;-72
2023/12/08 11:20:30;;;;;;;14.52;10.10;;;5.80;99.90;;;;;;5226499;28;20079;-74
2023/12/08 11:23:02;;;;;;;14.40;10.20;;;5.80;99.90;;;;;;5226140;28;20053;-74
2023/12/08 11:25:44;;;;;;;11.45;9.63;;;5.80;99.90;;;;;;5226417;28;20488;-72
2023/12/08 11:28:32;;;;;;;13.48;10.52;;;5.90;99.90;;;;;;5226433;28;20033;-73
2023/12/08 11:31:49;;;;;;;13.13;10.68;;;5.80;99.90;;;;;;5225460;28;20036;-76
2023/12/08 11:34:31;;;;;;;11.40;9.07;;;5.80;99.90;;;;;;5190485;28;20033;-77
2023/12/08 11:37:02;;;;;;;13.02;10.98;;;5.80;99.90;;;;;;5224894;28;20025;-73
2023/12/08 11:39:40;;;;;;;15.00;10.55;;;5.70;99.90;;;;;;5225408;28;20103;-73
2023/12/08 11:42:16;;;;;;;12.95;10.10;;;5.80;99.90;;;;;;5225066;28;20028;-73
2023/12/08 11:44:48;;;;;;;13.25;10.35;;;5.70;99.90;;;;;;5225099;28;20039;-74
2023/12/08 11:47:21;;;;;;;12.98;10.13;;;5.70;99.90;;;;;;5224899;28;20021;-73
2023/12/08 11:49:54;;;;;;;13.65;11.07;;;5.60;99.90;;;;;;5225651;28;20040;-73
2023/12/08 11:52:27;;;;;;;12.45;9.55;;;5.60;99.90;;;;;;5225298;28;20087;-75
2023/12/08 11:55:20;;;;;;;13.27;10.18;;;5.70;99.90;;;;;;5225947;28;20025;-78
2023/12/08 11:57:59;;;;;;;10.73;9.63;;;5.70;99.90;;;;;;5225968;28;20052;-72
2023/12/08 12:00:33;;;;;;;12.00;9.73;;;5.60;99.90;;;;;;5225933;28;20358;-76
2023/12/08 12:03:06;;;;;;;18.05;12.05;;;5.60;99.90;;;;;;5226235;28;20025;-73
2023/12/08 12:05:40;;;;;;;12.52;9.55;;;5.70;99.90;;;;;;5229935;28;20055;-73
2023/12/08 12:08:14;;;;;;;16.60;12.45;;;5.60;99.90;;;;;;5229417;28;20067;-76
2023/12/08 12:10:46;;;;;;;13.50;11.80;;;5.70;99.90;;;;;;5229940;28;20032;-76
2023/12/08 12:13:20;;;;;;;15.23;11.38;;;5.70;99.90;;;;;;5229625;28;20025;-79
2023/12/08 12:15:55;;;;;;;11.30;10.00;;;5.70;99.90;;;;;;5229967;28;20020;-73
2023/12/08 12:18:28;;;;;;;13.27;10.98;;;5.70;99.90;;;;;;5229574;28;20029;-74
2023/12/08 12:20:59;;;;;;;15.38;11.45;;;5.70;99.90;;;;;;5229707;28;20332;-76
2023/12/08 12:23:30;;;;;;;12.57;10.93;;;5.70;99.90;;;;;;5229510;28;20025;-77
2023/12/08 12:26:01;;;;;;;13.00;10.95;;;5.60;99.90;;;;;;5229275;28;20429;-79
2023/12/08 12:28:32;;;;;;;10.98;9.02;;;5.60;99.90;;;;;;5229148;28;20029;-79
2023/12/08 12:31:03;;;;;;;11.07;9.85;;;5.60;99.90;;;;;;5210323;28;20086;-73
2023/12/08 12:33:36;;;;;;;11.15;9.85;;;5.50;99.90;;;;;;5228147;28;20535;-78
2023/12/08 12:36:08;;;;;;;14.45;10.25;;;5.60;99.90;;;;;;5209917;28;20049;-78
2023/12/08 12:38:39;;;;;;;11.80;10.60;;;5.60;99.90;;;;;;5227964;28;20037;-79
2023/12/08 12:41:24;;;;;;;12.73;10.50;;;5.60;99.90;;;;;;5227880;28;20354;-79
2023/12/08 12:43:56;;;;;;;11.35;10.05;;;5.50;99.90;;;;;;5228075;28;20540;-77
2023/12/08 12:46:27;;;;;;;10.60;9.52;;;5.50;99.90;;;;;;5228819;28;20024;-79
2023/12/08 12:48:58;;;;;;;11.80;10.52;;;5.50;99.90;;;;;;5229206;28;20380;-76
2023/12/08 12:51:37;;;;;;;12.73;10.63;;;5.50;99.90;;;;;;5228886;28;20039;-73
2023/12/08 12:54:08;;;;;;;12.27;10.38;;;5.50;99.90;;;;;;5229077;28;20542;-75
2023/12/08 12:56:49;;;;;;;11.80;10.63;;;5.50;99.90;;;;;;5229117;28;20083;-73
2023/12/08 12:59:20;;;;;;;17.52;13.68;;;5.50;99.90;;;;;;5228986;28;20013;-73
2023/12/08 13:01:51;;;;;;;13.60;12.20;;;5.60;99.90;;;;;;5211153;28;20024;-78
2023/12/08 13:04:28;;;;;;;12.15;10.60;;;5.50;99.90;;;;;;5228843;28;20029;-74
2023/12/08 13:07:11;;;;;;;16.73;10.73;;;5.40;99.90;;;;;;5228314;28;20095;-73
2023/12/08 13:09:42;;;;;;;12.52;11.00;;;5.40;99.90;;;;;;5228591;28;20037;-72
2023/12/08 13:12:13;;;;;;;14.43;10.93;;;5.50;99.90;;;;;;5228056;28;20033;-73
2023/12/08 13:14:43;;;;;;;11.95;10.77;;;5.40;99.90;;;;;;5227680;28;20021;-79
2023/12/08 13:17:14;;;;;;;10.73;9.38;;;5.40;99.90;;;;;;5227958;28;20033;-72
2023/12/08 13:19:47;;;;;;;14.60;10.50;;;5.50;99.90;;;;;;5228496;28;20487;-72